Terminal Aerodrome Forecast
Issued by NWS

Home | Current Version | Previous Version | Text Only | Print | Product List | Glossary On
Versions: 1 2 3 4 5 6 7 8 9 10 11 12 13 14 15 16 17 18 19 20
000
FTUS44 KSJT 221100
TAFBBD
TAF
KBBD 221136Z 2212/2312 22012KT P6SM SCT012 BKN250
     FM221500 30016G22KT P6SM SCT015
     FM230300 04007KT P6SM BKN070=

USA.gov is the U.S. government's official web portal to all federal, state and local government web resources and services.